Time;durP1;ratioP1;P1;durP2;ratioP2;P2;SDS_P1;SDS_P2;PMS_P1;PMS_P2;Temp;Humidity;BMP_temperature;BMP_pressure;BME280_temperature;BME280_humidity;BME280_pressure;Samples;Min_cycle;Max_cycle;Signal;HPM_P1;HPM_P2
2021/10/15 00:02:18;;;;;;;5.30;3.67;;;;;;;-140.05;100.00;61859.38;4987894;28;20460;-64
2021/10/15 00:04:45;;;;;;;5.13;3.83;;;;;;;-140.05;100.00;61859.38;5014838;28;20543;-63
2021/10/15 00:07:11;;;;;;;4.35;3.22;;;;;;;-140.05;100.00;61859.38;5011580;28;21069;-63
2021/10/15 00:09:38;;;;;;;4.30;3.30;;;;;;;-140.05;100.00;61859.38;5005314;28;20564;-64
2021/10/15 00:12:05;;;;;;;4.70;3.73;;;;;;;-140.05;100.00;61859.38;5000377;28;20910;-64
2021/10/15 00:14:32;;;;;;;3.80;2.97;;;;;;;-140.05;100.00;61859.38;5009381;28;20530;-65
2021/10/15 00:16:59;;;;;;;3.47;2.83;;;;;;;-140.05;100.00;61859.38;5008851;28;20455;-64
2021/10/15 00:19:26;;;;;;;3.83;3.03;;;;;;;-140.05;100.00;61859.38;5009917;28;20449;-63
2021/10/15 00:21:54;;;;;;;3.67;2.93;;;;;;;-140.05;100.00;61859.38;5008962;28;20808;-64
2021/10/15 00:24:21;;;;;;;4.38;3.38;;;;;;;-140.05;100.00;61859.38;5009011;28;20447;-64
2021/10/15 00:26:48;;;;;;;4.60;3.30;;;;;;;-140.05;100.00;61859.38;5009033;28;20265;-63
2021/10/15 00:29:15;;;;;;;7.10;4.20;;;;;;;-140.05;100.00;61859.38;5009448;28;20555;-64
2021/10/15 00:31:42;;;;;;;4.85;3.25;;;;;;;-140.05;100.00;61859.38;5023025;28;20826;-64
2021/10/15 00:34:09;;;;;;;6.30;3.40;;;;;;;-140.05;100.00;61859.38;5012946;28;20288;-64
2021/10/15 00:36:36;;;;;;;3.70;2.60;;;;;;;-140.05;100.00;61859.38;5006548;28;20476;-64
2021/10/15 00:39:03;;;;;;;4.63;2.90;;;;;;;-140.05;100.00;61859.38;5005834;28;20448;-65
2021/10/15 00:41:31;;;;;;;3.63;2.83;;;;;;;-140.05;100.00;61859.38;5006447;28;20455;-65
2021/10/15 00:44:10;;;;;;;2.40;2.10;;;;;;;-140.05;100.00;61859.38;5021811;28;20865;-64
2021/10/15 00:46:40;;;;;;;3.33;2.50;;;;;;;-140.05;100.00;61859.38;5012367;28;20448;-64
2021/10/15 00:49:10;;;;;;;2.80;2.03;;;;;;;-140.05;100.00;61859.38;5012656;28;20528;-65
2021/10/15 00:51:40;;;;;;;3.90;2.50;;;;;;;-140.05;100.00;61859.38;5012514;28;20452;-64
2021/10/15 00:54:07;;;;;;;3.07;2.47;;;;;;;-140.05;100.00;61859.38;5012429;28;20198;-64
2021/10/15 00:56:35;;;;;;;3.53;2.57;;;;;;;-140.05;100.00;61859.38;5016285;28;21359;-64
2021/10/15 00:59:02;;;;;;;3.70;2.43;;;;;;;-140.05;100.00;61859.38;5016545;28;20469;-65
2021/10/15 01:01:30;;;;;;;2.80;2.20;;;;;;;-140.05;100.00;61859.38;4998072;28;21383;-66
2021/10/15 01:03:59;;;;;;;3.17;2.27;;;;;;;-140.05;100.00;61859.38;5002803;28;20977;-64
2021/10/15 01:06:28;;;;;;;4.80;2.67;;;;;;;-140.05;100.00;61859.38;4991474;28;20531;-64
2021/10/15 01:08:55;;;;;;;2.45;1.88;;;;;;;-140.05;100.00;61859.38;5012829;28;20488;-64
2021/10/15 01:11:22;;;;;;;2.73;2.10;;;;;;;-140.05;100.00;61859.38;5020014;28;20292;-64
2021/10/15 01:13:50;;;;;;;2.50;1.90;;;;;;;-140.05;100.00;61859.38;5019506;28;20459;-64
2021/10/15 01:16:22;;;;;;;2.90;1.80;;;;;;;-140.05;100.00;61859.38;5012150;28;20444;-64
2021/10/15 01:18:49;;;;;;;2.13;1.80;;;;;;;-140.05;100.00;61859.38;5008544;28;20467;-64
2021/10/15 01:21:16;;;;;;;2.27;1.80;;;;;;;-140.05;100.00;61859.38;5003985;28;20436;-67
2021/10/15 01:23:43;;;;;;;2.27;1.83;;;;;;;-140.05;100.00;61859.38;5016702;28;20459;-65
2021/10/15 01:26:10;;;;;;;3.10;2.03;;;;;;;-140.05;100.00;61859.38;5009771;28;20580;-65
2021/10/15 01:28:37;;;;;;;3.10;1.97;;;;;;;-140.05;100.00;61859.38;5011809;28;20516;-66
2021/10/15 01:31:04;;;;;;;2.77;2.00;;;;;;;-140.05;100.00;61859.38;5025767;28;20444;-63
2021/10/15 01:33:31;;;;;;;2.80;1.93;;;;;;;-140.05;100.00;61859.38;5020656;28;20506;-62
2021/10/15 01:35:58;;;;;;;2.80;1.90;;;;;;;-140.05;100.00;61859.38;5018567;28;20506;-65
2021/10/15 01:38:26;;;;;;;3.47;1.80;;;;;;;-140.05;100.00;61859.38;5017265;28;20444;-64
2021/10/15 01:40:54;;;;;;;1.97;1.40;;;;;;;-140.05;100.00;61859.38;5019523;28;20507;-64
2021/10/15 01:43:24;;;;;;;1.77;1.50;;;;;;;-140.05;100.00;61859.38;5011583;28;20440;-64
2021/10/15 01:45:51;;;;;;;3.30;1.57;;;;;;;-140.05;100.00;61859.38;5012248;28;20448;-65
2021/10/15 01:48:18;;;;;;;1.77;1.40;;;;;;;-140.05;100.00;61859.38;5010800;28;21044;-64
2021/10/15 01:50:45;;;;;;;2.30;1.40;;;;;;;-140.05;100.00;61859.38;5021403;28;20439;-64
2021/10/15 01:53:12;;;;;;;1.47;1.30;;;;;;;-140.05;100.00;61859.38;5017471;28;20456;-64
2021/10/15 01:55:41;;;;;;;1.80;1.30;;;;;;;-140.05;100.00;61859.38;5029364;28;20441;-64
2021/10/15 01:58:09;;;;;;;2.80;1.30;;;;;;;-140.05;100.00;61859.38;5012655;28;20459;-63
2021/10/15 02:00:38;;;;;;;1.73;1.40;;;;;;;-140.05;100.00;61859.38;5011461;28;20469;-63
2021/10/15 02:03:05;;;;;;;3.67;1.37;;;;;;;-140.05;100.00;61859.38;5000444;28;20472;-64
2021/10/15 02:05:32;;;;;;;1.33;1.13;;;;;;;-140.05;100.00;61859.38;5013039;28;20535;-63
2021/10/15 02:07:59;;;;;;;1.13;1.00;;;;;;;-140.05;100.00;61859.38;5006581;28;20473;-64
2021/10/15 02:10:26;;;;;;;1.30;0.93;;;;;;;-140.05;100.00;61859.38;5005969;28;20463;-67
2021/10/15 02:12:53;;;;;;;1.20;1.10;;;;;;;-140.05;100.00;61859.38;5005019;28;20483;-64
2021/10/15 02:15:22;;;;;;;1.67;1.20;;;;;;;-140.05;100.00;61859.38;5010174;28;20946;-63
2021/10/15 02:17:49;;;;;;;2.37;1.27;;;;;;;-140.05;100.00;61859.38;5024547;28;20433;-63
2021/10/15 02:20:18;;;;;;;1.70;1.20;;;;;;;-140.05;100.00;61859.38;5025139;28;21028;-63
2021/10/15 02:22:47;;;;;;;1.60;1.10;;;;;;;-140.05;100.00;61859.38;5024566;28;20453;-63
2021/10/15 02:25:15;;;;;;;1.63;1.20;;;;;;;-140.05;100.00;61859.38;5019648;28;20949;-63
2021/10/15 02:27:44;;;;;;;1.27;1.10;;;;;;;-140.05;100.00;61859.38;5014630;28;20996;-63
2021/10/15 02:30:13;;;;;;;2.90;1.27;;;;;;;-140.05;100.00;61859.38;5011345;28;20808;-65
2021/10/15 02:32:40;;;;;;;1.50;1.20;;;;;;;-140.05;100.00;61859.38;4996316;28;20449;-63
2021/10/15 02:35:08;;;;;;;3.15;1.63;;;;;;;-140.05;100.00;61859.38;5000575;28;20495;-64
2021/10/15 02:37:35;;;;;;;2.20;2.00;;;;;;;-140.05;100.00;61859.38;5003281;28;20212;-64
2021/10/15 02:40:04;;;;;;;2.60;1.83;;;;;;;-140.05;100.00;61859.38;5008591;28;20444;-64
2021/10/15 02:42:32;;;;;;;6.67;2.40;;;;;;;-140.05;100.00;61859.38;5009237;28;20451;-62
2021/10/15 02:44:59;;;;;;;3.00;2.10;;;;;;;-140.05;100.00;61859.38;4989851;28;20448;-62
2021/10/15 02:47:26;;;;;;;4.73;3.23;;;;;;;-140.05;100.00;61859.38;5010614;28;20571;-63
2021/10/15 02:49:52;;;;;;;5.77;3.40;;;;;;;-140.05;100.00;61859.38;5008673;28;20500;-66
2021/10/15 02:52:20;;;;;;;4.03;3.00;;;;;;;-140.05;100.00;61859.38;4999123;28;20456;-64
2021/10/15 02:54:47;;;;;;;4.93;3.40;;;;;;;-140.05;100.00;61859.38;5010835;28;20865;-63
2021/10/15 02:57:14;;;;;;;6.20;4.70;;;;;;;-140.05;100.00;61859.38;5010500;28;20463;-64
2021/10/15 02:59:40;;;;;;;7.78;4.70;;;;;;;-140.05;100.00;61859.38;5008556;28;20504;-64
2021/10/15 03:02:08;;;;;;;7.73;4.67;;;;;;;-140.05;100.00;61859.38;5011717;28;20233;-64
2021/10/15 03:04:35;;;;;;;7.10;4.83;;;;;;;-140.05;100.00;61859.38;5000322;28;21212;-65
2021/10/15 03:07:02;;;;;;;9.90;6.77;;;;;;;-140.05;100.00;61859.38;5010590;28;20444;-64
2021/10/15 03:09:29;;;;;;;11.52;8.88;;;;;;;-140.05;100.00;61859.38;5004697;28;20572;-64
2021/10/15 03:11:56;;;;;;;11.87;9.13;;;;;;;-140.05;100.00;61859.38;5000342;28;20198;-63
2021/10/15 03:14:23;;;;;;;12.23;9.33;;;;;;;-140.05;100.00;61859.38;5009814;28;20451;-63
2021/10/15 03:16:50;;;;;;;11.13;9.35;;;;;;;-140.05;100.00;61859.38;5015201;28;20516;-64
2021/10/15 03:19:17;;;;;;;10.93;7.50;;;;;;;-140.05;100.00;61859.38;5022382;28;20663;-64
2021/10/15 03:21:44;;;;;;;7.27;5.20;;;;;;;-140.05;100.00;61859.38;5021503;28;20495;-63
2021/10/15 03:24:11;;;;;;;6.80;5.50;;;;;;;-140.05;100.00;61859.38;5020071;28;20447;-65
2021/10/15 03:26:38;;;;;;;8.18;5.47;;;;;;;-140.05;100.00;61859.38;5010082;28;20449;-65
2021/10/15 03:29:05;;;;;;;7.43;4.93;;;;;;;-140.05;100.00;61859.38;5010072;28;20217;-64
2021/10/15 03:31:33;;;;;;;6.40;4.70;;;;;;;-140.05;100.00;61859.38;5009765;28;20445;-63
2021/10/15 03:34:02;;;;;;;4.90;4.10;;;;;;;-140.05;100.00;61859.38;5006588;28;20486;-63
2021/10/15 03:36:28;;;;;;;4.67;3.63;;;;;;;-140.05;100.00;61859.38;4999231;28;21198;-64
2021/10/15 03:38:55;;;;;;;5.38;3.83;;;;;;;-140.05;100.00;61859.38;5015735;28;20873;-63
2021/10/15 03:41:22;;;;;;;4.67;3.57;;;;;;;-140.05;100.00;61859.38;5009246;28;20200;-63
2021/10/15 03:43:49;;;;;;;5.30;3.57;;;;;;;-140.05;100.00;61859.38;5001535;28;21323;-64
2021/10/15 03:46:18;;;;;;;6.03;4.00;;;;;;;-140.05;100.00;61859.38;5004715;28;20946;-64
2021/10/15 03:48:45;;;;;;;6.70;3.70;;;;;;;-140.05;100.00;61859.38;5009805;28;20581;-64
2021/10/15 03:51:12;;;;;;;6.50;3.40;;;;;;;-140.05;100.00;61859.38;5009844;28;21197;-64
2021/10/15 03:53:39;;;;;;;6.77;3.87;;;;;;;-140.05;100.00;61859.38;5009780;28;20445;-64
2021/10/15 03:56:06;;;;;;;6.50;4.10;;;;;;;-140.05;100.00;61859.38;5022586;28;20454;-62
2021/10/15 03:58:36;;;;;;;6.80;3.70;;;;;;;-140.05;100.00;61859.38;5012122;28;20547;-64
2021/10/15 04:01:03;;;;;;;6.10;3.80;;;;;;;-140.05;100.00;61859.38;4998370;28;20480;-65
2021/10/15 04:03:30;;;;;;;5.80;3.67;;;;;;;-140.05;100.00;61859.38;4999848;28;20810;-63
2021/10/15 04:05:57;;;;;;;6.67;4.07;;;;;;;-140.05;100.00;61859.38;5000240;28;20974;-63
2021/10/15 04:08:24;;;;;;;6.30;4.07;;;;;;;-140.05;100.00;61859.38;5009615;28;20484;-63
2021/10/15 04:10:51;;;;;;;9.33;5.00;;;;;;;-140.05;100.00;61859.38;5009561;28;20462;-63
2021/10/15 04:13:18;;;;;;;6.32;4.18;;;;;;;-140.05;100.00;61859.38;5008920;28;20511;-64
2021/10/15 04:15:45;;;;;;;8.43;5.83;;;;;;;-140.05;100.00;61859.38;5010877;28;20208;-64
2021/10/15 04:18:12;;;;;;;11.33;7.73;;;;;;;-140.05;100.00;61859.38;5021471;28;20989;-63
2021/10/15 04:20:40;;;;;;;12.43;7.60;;;;;;;-140.05;100.00;61859.38;4999072;28;20449;-65
2021/10/15 04:23:07;;;;;;;9.67;6.70;;;;;;;-140.05;100.00;61859.38;5008545;28;20440;-63
2021/10/15 04:25:34;;;;;;;8.48;5.82;;;;;;;-140.05;100.00;61859.38;5000873;28;20450;-62
2021/10/15 04:28:01;;;;;;;8.23;6.43;;;;;;;-140.05;100.00;61859.38;5010405;28;20197;-63
2021/10/15 04:30:28;;;;;;;9.07;5.40;;;;;;;-140.05;100.00;61859.38;5002722;28;20664;-63
2021/10/15 04:32:55;;;;;;;7.27;5.30;;;;;;;-140.05;100.00;61859.38;5004690;28;20503;-65
2021/10/15 04:35:22;;;;;;;7.23;5.37;;;;;;;-140.05;100.00;61859.38;5012891;28;20451;-63
2021/10/15 04:37:48;;;;;;;7.30;5.18;;;;;;;-140.05;100.00;61859.38;5012411;28;20878;-63
2021/10/15 04:40:15;;;;;;;8.20;5.43;;;;;;;-140.05;100.00;61859.38;5005244;28;20194;-63
2021/10/15 04:42:47;;;;;;;8.23;5.70;;;;;;;-140.05;100.00;61859.38;5009090;28;20503;-63
2021/10/15 04:45:14;;;;;;;9.10;5.90;;;;;;;-140.05;100.00;61859.38;5003205;28;20453;-63
2021/10/15 04:47:41;;;;;;;8.47;6.30;;;;;;;-140.05;100.00;61859.38;5000507;28;20432;-61
2021/10/15 04:50:08;;;;;;;48.03;32.73;;;;;;;-140.05;100.00;61859.38;5000821;28;20488;-63
2021/10/15 04:52:35;;;;;;;26.85;18.75;;;;;;;-140.05;100.00;61859.38;5008283;28;20437;-63
2021/10/15 04:55:03;;;;;;;14.27;10.37;;;;;;;-140.05;100.00;61859.38;5011670;28;20198;-61
2021/10/15 04:57:30;;;;;;;10.87;8.30;;;;;;;-140.05;100.00;61859.38;5011344;28;20457;-61
2021/10/15 04:59:58;;;;;;;13.37;8.93;;;;;;;-140.05;100.00;61859.38;5008837;28;20491;-62
2021/10/15 05:02:25;;;;;;;12.20;9.40;;;;;;;-140.05;100.00;61859.38;5008464;28;20433;-61
2021/10/15 05:04:52;;;;;;;11.20;8.83;;;;;;;-140.05;100.00;61859.38;4997296;28;20537;-62
2021/10/15 05:07:19;;;;;;;12.37;8.10;;;;;;;-140.05;100.00;61859.38;5004029;28;20883;-62
2021/10/15 05:09:46;;;;;;;12.00;8.93;;;;;;;-140.05;100.00;61859.38;5008868;28;20851;-61
2021/10/15 05:12:16;;;;;;;10.75;8.43;;;;;;;-140.05;100.00;61859.38;5008431;28;20441;-65
2021/10/15 05:14:43;;;;;;;13.93;9.30;;;;;;;-140.05;100.00;61859.38;4993392;28;20203;-63
2021/10/15 05:17:10;;;;;;;11.93;8.70;;;;;;;-140.05;100.00;61859.38;4992233;28;20964;-62
2021/10/15 05:19:39;;;;;;;13.47;8.40;;;;;;;-140.05;100.00;61859.38;4994444;28;20464;-63
2021/10/15 05:22:06;;;;;;;13.67;8.80;;;;;;;-140.05;100.00;61859.38;5000604;28;20441;-65
2021/10/15 05:24:33;;;;;;;13.90;9.30;;;;;;;-140.05;100.00;61859.38;5011422;28;20436;-63
2021/10/15 05:27:00;;;;;;;10.33;8.17;;;;;;;-140.05;100.00;61859.38;5009775;28;21070;-65
2021/10/15 05:29:27;;;;;;;12.97;8.30;;;;;;;-140.05;100.00;61859.38;5011667;28;20480;-64
2021/10/15 05:31:54;;;;;;;11.30;7.67;;;;;;;-140.05;100.00;61859.38;5014702;28;20460;-63
2021/10/15 05:34:21;;;;;;;12.47;7.83;;;;;;;-140.05;100.00;61859.38;5001063;28;20548;-65
2021/10/15 05:36:48;;;;;;;15.53;10.83;;;;;;;-140.05;100.00;61859.38;5013810;28;20452;-65
2021/10/15 05:39:15;;;;;;;22.73;16.63;;;;;;;-140.05;100.00;61859.38;5011889;28;20895;-64
2021/10/15 05:41:42;;;;;;;25.97;16.37;;;;;;;-140.05;100.00;61859.38;4998864;28;20452;-63
2021/10/15 05:44:09;;;;;;;25.30;17.13;;;;;;;-140.05;100.00;61859.38;5003281;28;20455;-63
2021/10/15 05:46:36;;;;;;;24.10;16.93;;;;;;;-140.05;100.00;61859.38;5011812;28;20436;-66
2021/10/15 05:49:07;;;;;;;25.77;17.40;;;;;;;-140.05;100.00;61859.38;5015115;28;20472;-64
2021/10/15 05:51:38;;;;;;;22.57;15.47;;;;;;;-140.05;100.00;61859.38;5002572;28;20457;-65
2021/10/15 05:54:05;;;;;;;23.97;15.57;;;;;;;-140.05;100.00;61859.38;5017606;28;20479;-64
2021/10/15 05:56:43;;;;;;;19.27;13.93;;;;;;;-140.05;100.00;61859.38;5014066;28;20460;-63
2021/10/15 05:59:12;;;;;;;18.73;13.60;;;;;;;-140.05;100.00;61859.38;5013190;28;20472;-64
2021/10/15 06:01:39;;;;;;;18.37;12.43;;;;;;;-140.05;100.00;61859.38;4998550;28;20474;-64
2021/10/15 06:14:34;;;;;;;18.90;11.77;;;;;;;-140.05;100.00;61859.38;5011365;28;20441;-64
2021/10/15 06:17:07;;;;;;;15.80;9.43;;;;;;;-140.05;100.00;61859.38;5011695;28;20510;-64
2021/10/15 06:19:46;;;;;;;14.83;9.20;;;;;;;-140.05;100.00;61859.38;5011286;28;21005;-63
2021/10/15 06:22:14;;;;;;;10.40;7.50;;;;;;;-140.05;100.00;61859.38;5011251;28;20473;-64
2021/10/15 06:24:41;;;;;;;8.43;6.20;;;;;;;-140.05;100.00;61859.38;5011216;28;20960;-64
2021/10/15 06:27:07;;;;;;;7.83;5.10;;;;;;;-140.05;100.00;61859.38;5011069;28;20453;-64
2021/10/15 06:29:35;;;;;;;6.60;4.63;;;;;;;-140.05;100.00;61859.38;5011095;28;20538;-67
2021/10/15 06:32:02;;;;;;;8.07;6.17;;;;;;;-140.05;100.00;61859.38;5011559;28;20445;-64
2021/10/15 06:34:29;;;;;;;8.40;5.93;;;;;;;-140.05;100.00;61859.38;5010770;28;20452;-64
2021/10/15 06:36:56;;;;;;;6.83;5.50;;;;;;;-140.05;100.00;61859.38;5010388;28;20452;-64
2021/10/15 06:39:23;;;;;;;9.30;5.80;;;;;;;-140.05;100.00;61859.38;5009799;28;20844;-63
2021/10/15 06:41:50;;;;;;;7.60;5.17;;;;;;;-140.05;100.00;61859.38;5010833;28;20541;-65
2021/10/15 06:44:17;;;;;;;7.23;5.00;;;;;;;-140.05;100.00;61859.38;5010996;28;20476;-65
2021/10/15 06:46:45;;;;;;;7.07;4.73;;;;;;;-140.05;100.00;61859.38;5010617;28;20452;-65
2021/10/15 06:49:12;;;;;;;5.63;4.47;;;;;;;-140.05;100.00;61859.38;5011203;28;20483;-66
2021/10/15 06:51:39;;;;;;;5.50;4.20;;;;;;;-140.05;100.00;61859.38;5010777;28;20459;-64
2021/10/15 06:54:06;;;;;;;5.63;4.27;;;;;;;-140.05;100.00;61859.38;5010962;28;20437;-64
2021/10/15 06:56:33;;;;;;;6.17;3.70;;;;;;;-140.05;100.00;61859.38;5009960;28;20441;-64
2021/10/15 06:59:00;;;;;;;5.03;3.67;;;;;;;-140.05;100.00;61859.38;5010826;28;20874;-64
2021/10/15 07:01:27;;;;;;;4.00;3.10;;;;;;;-140.05;100.00;61859.38;4998296;28;20473;-64
2021/10/15 07:03:54;;;;;;;5.13;3.10;;;;;;;-140.05;100.00;61859.38;5008699;28;20217;-64
2021/10/15 07:06:21;;;;;;;4.33;2.93;;;;;;;-140.05;100.00;61859.38;5008100;28;20588;-65
2021/10/15 07:08:48;;;;;;;5.27;3.07;;;;;;;-140.05;100.00;61859.38;5010469;28;20565;-64
2021/10/15 07:11:15;;;;;;;7.67;2.73;;;;;;;-140.05;100.00;61859.38;4996510;28;20452;-64
2021/10/15 07:13:42;;;;;;;5.43;3.40;;;;;;;-140.05;100.00;61859.38;5010624;28;20490;-66
2021/10/15 07:16:10;;;;;;;5.53;3.70;;;;;;;-140.05;100.00;61859.38;5009742;28;20607;-64
2021/10/15 07:18:39;;;;;;;7.17;4.77;;;;;;;-140.05;100.00;61859.38;5010399;28;20448;-64
2021/10/15 07:21:07;;;;;;;5.47;4.30;;;;;;;-140.05;100.00;61859.38;5009161;28;20441;-64
2021/10/15 07:23:34;;;;;;;10.70;5.10;;;;;;;-140.05;100.00;61859.38;5010424;28;20497;-63
2021/10/15 07:26:02;;;;;;;12.73;7.20;;;;;;;-140.05;100.00;61859.38;5009823;28;20449;-63
2021/10/15 07:28:29;;;;;;;9.90;6.07;;;;;;;-140.05;100.00;61859.38;5010256;28;20448;-63
2021/10/15 07:30:58;;;;;;;8.40;5.73;;;;;;;-140.05;100.00;61859.38;5010224;28;20919;-65
2021/10/15 07:33:25;;;;;;;7.13;4.43;;;;;;;-140.05;100.00;61859.38;5010794;28;20813;-64
2021/10/15 07:35:53;;;;;;;5.70;3.77;;;;;;;-140.05;100.00;61859.38;5009877;28;21060;-63
2021/10/15 07:38:20;;;;;;;6.73;4.50;;;;;;;-140.05;100.00;61859.38;5009864;28;20449;-64
2021/10/15 07:40:47;;;;;;;7.03;3.70;;;;;;;-140.05;100.00;61859.38;5011181;28;20456;-64
2021/10/15 07:43:14;;;;;;;8.73;6.27;;;;;;;-140.05;100.00;61859.38;5011327;28;20966;-64
2021/10/15 07:45:41;;;;;;;9.50;5.33;;;;;;;-140.05;100.00;61859.38;5011359;28;20451;-64
2021/10/15 07:48:08;;;;;;;7.47;4.60;;;;;;;-140.05;100.00;61859.38;5008559;28;20441;-63
2021/10/15 07:50:35;;;;;;;18.73;14.53;;;;;;;-140.05;100.00;61859.38;5009878;28;20610;-64
2021/10/15 07:53:02;;;;;;;64.60;44.77;;;;;;;-140.05;100.00;61859.38;5009352;28;20451;-64
2021/10/15 07:55:29;;;;;;;22.03;16.00;;;;;;;-140.05;100.00;61859.38;5012876;28;20449;-65
2021/10/15 07:57:56;;;;;;;60.70;40.60;;;;;;;-140.05;100.00;61859.38;5011221;28;20464;-64
2021/10/15 08:00:23;;;;;;;47.97;34.23;;;;;;;-140.05;100.00;61859.38;5006012;28;20481;-64
2021/10/15 08:02:52;;;;;;;5.87;3.90;;;;;;;-140.05;100.00;61859.38;4999279;28;20468;-63
2021/10/15 08:05:20;;;;;;;3.10;2.27;;;;;;;-140.05;100.00;61859.38;5009106;28;20841;-65
2021/10/15 08:07:46;;;;;;;3.60;2.30;;;;;;;-140.05;100.00;61859.38;5008979;28;20824;-65
2021/10/15 08:10:14;;;;;;;2.23;1.80;;;;;;;-140.05;100.00;61859.38;5009843;28;20477;-65
2021/10/15 08:12:41;;;;;;;5.47;4.97;;;;;;;-140.05;100.00;61859.38;5009406;28;20451;-65
2021/10/15 08:15:11;;;;;;;2.80;2.20;;;;;;;-140.05;100.00;61859.38;5009217;28;20452;-64
2021/10/15 08:17:42;;;;;;;4.77;2.60;;;;;;;-140.05;100.00;61859.38;5009184;28;20455;-64
2021/10/15 08:20:11;;;;;;;4.50;3.10;;;;;;;-140.05;100.00;61859.38;5009673;28;20452;-64
2021/10/15 08:22:38;;;;;;;3.53;2.50;;;;;;;-140.05;100.00;61859.38;5008689;28;20875;-64
2021/10/15 08:25:23;;;;;;;4.90;3.10;;;;;;;-140.05;100.00;61859.38;5009680;28;20502;-64
2021/10/15 08:27:50;;;;;;;5.63;2.47;;;;;;;-140.05;100.00;61859.38;5008852;28;20440;-64
2021/10/15 08:30:17;;;;;;;3.93;2.40;;;;;;;-140.05;100.00;61859.38;5009604;28;20564;-65
2021/10/15 08:32:44;;;;;;;4.57;2.50;;;;;;;-140.05;100.00;61859.38;5008972;28;20456;-64
2021/10/15 08:35:12;;;;;;;6.13;3.33;;;;;;;-140.05;100.00;61859.38;5009080;28;20441;-65
2021/10/15 08:37:39;;;;;;;7.77;4.10;;;;;;;-140.05;100.00;61859.38;5009052;28;20455;-65
2021/10/15 08:40:08;;;;;;;12.00;6.03;;;;;;;-140.05;100.00;61859.38;5009416;28;20449;-65
2021/10/15 08:42:36;;;;;;;7.63;4.90;;;;;;;-140.05;100.00;61859.38;5008931;28;20647;-66
2021/10/15 08:45:05;;;;;;;9.70;4.50;;;;;;;-140.05;100.00;61859.38;5023034;28;20440;-64
2021/10/15 08:47:32;;;;;;;9.80;3.80;;;;;;;-140.05;100.00;61859.38;5009333;28;20806;-64
2021/10/15 08:50:20;;;;;;;9.70;5.60;;;;;;;-140.05;100.00;61859.38;5015070;28;20502;-64
2021/10/15 08:52:48;;;;;;;7.40;4.60;;;;;;;-140.05;100.00;61859.38;5017104;28;20460;-65
2021/10/15 08:55:15;;;;;;;5.87;3.90;;;;;;;-140.05;100.00;61859.38;5008882;28;20445;-65
2021/10/15 08:57:50;;;;;;;7.03;5.10;;;;;;;-140.05;100.00;61859.38;5008973;28;20448;-64
2021/10/15 09:00:36;;;;;;;7.63;5.00;;;;;;;-140.05;100.00;61859.38;5009238;28;20465;-65
2021/10/15 09:03:18;;;;;;;7.60;4.07;;;;;;;-140.05;100.00;61859.38;4993203;28;20449;-64
2021/10/15 09:05:58;;;;;;;8.20;4.37;;;;;;;-140.05;100.00;61859.38;4997803;28;20448;-64
2021/10/15 09:08:27;;;;;;;6.27;4.07;;;;;;;-140.05;100.00;61859.38;5023632;28;20446;-64
2021/10/15 09:10:54;;;;;;;6.73;4.27;;;;;;;-140.05;100.00;61859.38;5015391;28;20472;-64
2021/10/15 09:13:21;;;;;;;5.23;3.47;;;;;;;-140.05;100.00;61859.38;5012720;28;20447;-64
2021/10/15 09:15:51;;;;;;;5.17;3.27;;;;;;;-140.05;100.00;61859.38;5016044;28;20441;-66
2021/10/15 09:18:32;;;;;;;6.60;3.30;;;;;;;-140.05;100.00;61859.38;5026391;28;20611;-64
2021/10/15 09:21:14;;;;;;;5.33;3.13;;;;;;;-140.05;100.00;61859.38;5012316;28;20446;-65
2021/10/15 09:23:49;;;;;;;4.03;2.73;;;;;;;-140.05;100.00;61859.38;5012447;28;20480;-64
2021/10/15 09:26:17;;;;;;;4.23;2.30;;;;;;;-140.05;100.00;61859.38;5015752;28;20451;-66
2021/10/15 09:28:46;;;;;;;3.13;2.00;;;;;;;-140.05;100.00;61859.38;5022956;28;20457;-64
2021/10/15 09:31:15;;;;;;;2.67;2.30;;;;;;;-140.05;100.00;61859.38;5011748;28;20554;-65
2021/10/15 09:33:57;;;;;;;6.73;5.07;;;;;;;-140.05;100.00;61859.38;5012724;28;20524;-64
2021/10/15 09:36:24;;;;;;;7.20;4.70;;;;;;;-140.05;100.00;61859.38;5011985;28;21022;-65
2021/10/15 09:38:52;;;;;;;6.90;4.20;;;;;;;-140.05;100.00;61859.38;5012972;28;20432;-64
2021/10/15 09:41:39;;;;;;;6.43;4.47;;;;;;;-140.05;100.00;61859.38;5011708;28;20448;-64
2021/10/15 09:44:30;;;;;;;5.87;4.63;;;;;;;-140.05;100.00;61859.38;5012393;28;20993;-65
2021/10/15 09:47:17;;;;;;;10.30;5.30;;;;;;;-140.05;100.00;61859.38;4997472;28;20485;-64
2021/10/15 09:49:54;;;;;;;9.40;5.97;;;;;;;-140.05;100.00;61859.38;5012108;28;20481;-63
2021/10/15 09:53:00;;;;;;;9.83;5.70;;;;;;;-140.05;100.00;61859.38;5012704;28;20444;-64
2021/10/15 09:55:37;;;;;;;7.07;4.83;;;;;;;-140.05;100.00;61859.38;5016062;28;20491;-64
2021/10/15 09:58:24;;;;;;;6.87;4.90;;;;;;;-140.05;100.00;61859.38;5012710;28;20459;-66
2021/10/15 10:00:52;;;;;;;7.43;4.70;;;;;;;-140.05;100.00;61859.38;5013845;28;20840;-63
2021/10/15 10:03:22;;;;;;;6.73;4.90;;;;;;;-140.05;100.00;61859.38;5000582;28;20454;-64
2021/10/15 10:05:50;;;;;;;7.00;5.23;;;;;;;-140.05;100.00;61859.38;5008993;28;20528;-66
2021/10/15 10:08:18;;;;;;;9.03;5.67;;;;;;;-140.05;100.00;61859.38;5021019;28;20448;-64
2021/10/15 10:10:46;;;;;;;9.67;6.40;;;;;;;-140.05;100.00;61859.38;5014600;28;20491;-65
2021/10/15 10:13:15;;;;;;;9.20;6.50;;;;;;;-140.05;100.00;61859.38;5011197;28;20443;-64
2021/10/15 10:15:44;;;;;;;9.27;5.93;;;;;;;-140.05;100.00;61859.38;5011419;28;20771;-63
2021/10/15 10:18:28;;;;;;;7.97;5.40;;;;;;;-140.05;100.00;61859.38;5011779;28;20539;-64
2021/10/15 10:21:04;;;;;;;8.17;5.40;;;;;;;-140.05;100.00;61859.38;5010924;28;20453;-65
2021/10/15 10:23:44;;;;;;;7.77;6.10;;;;;;;-140.05;100.00;61859.38;5011701;28;20479;-65
2021/10/15 10:26:16;;;;;;;5.50;4.50;;;;;;;-140.05;100.00;61859.38;5010538;28;20440;-64
2021/10/15 10:28:43;;;;;;;5.80;4.50;;;;;;;-140.05;100.00;61859.38;5011678;28;20544;-64
2021/10/15 10:31:22;;;;;;;7.13;4.37;;;;;;;-140.05;100.00;61859.38;5010820;28;21237;-65
2021/10/15 10:33:55;;;;;;;5.30;4.13;;;;;;;-140.05;100.00;61859.38;5011214;28;20437;-64
2021/10/15 10:36:25;;;;;;;6.37;4.60;;;;;;;-140.05;100.00;61859.38;5010208;28;20565;-65
2021/10/15 10:38:52;;;;;;;10.63;7.07;;;;;;;-140.05;100.00;61859.38;5011122;28;20441;-64
2021/10/15 10:41:20;;;;;;;10.77;7.23;;;;;;;-140.05;100.00;61859.38;5010675;28;20503;-65
2021/10/15 10:43:47;;;;;;;11.87;8.37;;;;;;;-140.05;100.00;61859.38;5018961;28;21050;-64
2021/10/15 10:46:21;;;;;;;15.03;10.53;;;;;;;-140.05;100.00;61859.38;5016257;28;21145;-66
2021/10/15 10:48:51;;;;;;;19.50;13.33;;;;;;;-140.05;100.00;61859.38;5018364;28;20444;-64
2021/10/15 10:51:30;;;;;;;19.70;14.33;;;;;;;-140.05;100.00;61859.38;5016894;28;20579;-64
2021/10/15 10:54:07;;;;;;;19.33;13.23;;;;;;;-140.05;100.00;61859.38;5003150;28;20444;-65
2021/10/15 10:56:37;;;;;;;17.97;12.53;;;;;;;-140.05;100.00;61859.38;5005792;28;20452;-64
2021/10/15 10:59:18;;;;;;;17.30;11.83;;;;;;;-140.05;100.00;61859.38;5011265;28;20449;-64
2021/10/15 11:02:12;;;;;;;15.93;11.50;;;;;;;-140.05;100.00;61859.38;5009381;28;20452;-63
2021/10/15 11:04:43;;;;;;;16.03;10.70;;;;;;;-140.05;100.00;61859.38;4990794;28;20480;-65
2021/10/15 11:07:23;;;;;;;14.07;10.03;;;;;;;-140.05;100.00;61859.38;5004357;28;20463;-63
2021/10/15 11:10:10;;;;;;;16.37;11.13;;;;;;;-140.05;100.00;61859.38;5010805;28;20796;-65
2021/10/15 11:12:37;;;;;;;17.27;11.07;;;;;;;-140.05;100.00;61859.38;5005887;28;20495;-63
2021/10/15 11:15:11;;;;;;;20.27;13.03;;;;;;;-140.05;100.00;61859.38;5010585;28;20485;-64
2021/10/15 11:17:41;;;;;;;21.83;15.13;;;;;;;-140.05;100.00;61859.38;5010167;28;20445;-66
2021/10/15 11:20:26;;;;;;;23.23;16.10;;;;;;;-140.05;100.00;61859.38;5011187;28;20878;-64
2021/10/15 11:22:55;;;;;;;20.97;15.10;;;;;;;-140.05;100.00;61859.38;5023843;28;20449;-64
2021/10/15 11:25:25;;;;;;;17.30;13.33;;;;;;;-140.05;100.00;61859.38;5010475;28;20841;-65
2021/10/15 11:27:54;;;;;;;22.60;15.30;;;;;;;-140.05;100.00;61859.38;5009677;28;20461;-66